createdAt,value
2022-12-26T00:02:49.275Z,15.40
2022-12-26T00:05:51.583Z,15.35
2022-12-26T00:08:55.034Z,15.26
2022-12-26T00:11:57.009Z,15.24
2022-12-26T00:14:58.926Z,15.07
2022-12-26T00:18:00.942Z,15.38
2022-12-26T00:21:03.015Z,15.67
2022-12-26T00:24:05.597Z,15.50
2022-12-26T00:27:07.642Z,16.34
2022-12-26T00:30:10.915Z,17.17
2022-12-26T00:33:13.786Z,17.43
2022-12-26T00:36:19.049Z,17.56
2022-12-26T00:39:21.272Z,17.51
2022-12-26T00:42:23.405Z,17.80
2022-12-26T00:45:25.763Z,18.25
2022-12-26T00:48:29.129Z,18.43
2022-12-26T00:51:31.578Z,18.37
2022-12-26T00:54:34.335Z,18.25
2022-12-26T00:57:36.471Z,18.16
2022-12-26T01:00:44.483Z,18.13
2022-12-26T01:03:47.258Z,17.79
2022-12-26T01:06:49.312Z,17.56
2022-12-26T01:09:51.482Z,17.58
2022-12-26T01:12:54.030Z,17.09
2022-12-26T01:15:58.684Z,16.90
2022-12-26T01:19:08.881Z,17.05
2022-12-26T01:22:11.277Z,16.88
2022-12-26T01:25:13.950Z,16.95
2022-12-26T01:28:15.948Z,17.01
2022-12-26T01:31:19.336Z,17.02
2022-12-26T01:34:21.914Z,16.95
2022-12-26T01:37:24.089Z,16.82
2022-12-26T01:40:26.384Z,16.85
2022-12-26T01:44:02.041Z,16.76
2022-12-26T01:47:04.193Z,16.65
2022-12-26T01:50:10.304Z,16.63
2022-12-26T01:53:18.722Z,16.60
2022-12-26T01:56:23.836Z,16.63
2022-12-26T01:59:28.730Z,16.59
2022-12-26T02:02:51.784Z,16.43
2022-12-26T02:05:57.616Z,16.50
2022-12-26T02:09:00.447Z,16.38
2022-12-26T02:12:34.322Z,16.38
2022-12-26T02:15:36.631Z,16.37
2022-12-26T02:18:39.006Z,16.26
2022-12-26T02:21:49.664Z,16.23
2022-12-26T02:24:54.618Z,16.22
2022-12-26T02:28:34.409Z,16.19
2022-12-26T02:32:06.828Z,16.14
2022-12-26T02:35:28.080Z,16.09
2022-12-26T02:38:36.127Z,16.03
2022-12-26T02:41:47.187Z,16.01
2022-12-26T02:45:17.697Z,15.93
2022-12-26T02:48:41.979Z,15.82
2022-12-26T02:52:05.412Z,15.74
2022-12-26T02:55:35.001Z,15.60
2022-12-26T02:59:07.612Z,15.57
2022-12-26T03:02:59.348Z,15.29
2022-12-26T03:06:26.169Z,15.25
2022-12-26T03:09:51.427Z,15.36
2022-12-26T03:13:13.982Z,15.45
2022-12-26T03:16:36.458Z,15.42
2022-12-26T03:19:58.583Z,15.46
2022-12-26T03:23:09.059Z,15.31
2022-12-26T03:26:35.490Z,15.27
2022-12-26T03:29:56.523Z,15.16
2022-12-26T03:32:59.523Z,15.07
2022-12-26T03:36:03.390Z,14.97
2022-12-26T03:40:06.402Z,14.83
2022-12-26T03:43:45.951Z,14.85
2022-12-26T03:47:29.468Z,14.84
2022-12-26T03:51:22.577Z,14.78
2022-12-26T03:55:01.834Z,14.68
2022-12-26T03:58:35.323Z,14.83
2022-12-26T04:02:00.246Z,15.00
2022-12-26T04:05:24.989Z,14.92
2022-12-26T04:09:15.922Z,14.93
2022-12-26T04:12:44.972Z,15.05
2022-12-26T04:16:58.358Z,15.65
2022-12-26T04:20:09.544Z,15.86
2022-12-26T04:23:41.152Z,16.56
2022-12-26T04:27:10.027Z,16.69
2022-12-26T04:30:31.031Z,16.71
2022-12-26T04:34:02.496Z,16.68
2022-12-26T04:37:27.401Z,16.71
2022-12-26T04:40:52.838Z,16.83
2022-12-26T04:44:10.575Z,16.78
2022-12-26T04:47:12.666Z,16.60
2022-12-26T04:50:15.907Z,16.68
2022-12-26T04:53:19.174Z,16.75
2022-12-26T04:56:21.584Z,16.60
2022-12-26T04:59:24.293Z,16.78
2022-12-26T05:02:44.996Z,16.55
2022-12-26T05:06:08.529Z,16.45
2022-12-26T05:09:35.255Z,16.56
2022-12-26T05:12:37.351Z,16.49
2022-12-26T05:15:58.014Z,16.49
2022-12-26T05:19:18.535Z,16.35
2022-12-26T05:22:39.671Z,16.37
2022-12-26T05:26:03.560Z,16.44
2022-12-26T05:29:06.886Z,16.53
2022-12-26T05:32:08.955Z,16.52
2022-12-26T05:35:11.068Z,16.59
2022-12-26T05:38:13.229Z,16.50
2022-12-26T05:41:16.494Z,16.40
2022-12-26T05:44:18.651Z,16.47
2022-12-26T05:47:20.699Z,16.45
2022-12-26T05:50:26.975Z,16.51
2022-12-26T05:53:33.001Z,16.43
2022-12-26T05:56:35.324Z,16.41
2022-12-26T05:59:37.485Z,16.24
2022-12-26T06:02:39.588Z,16.37
2022-12-26T06:05:41.682Z,16.45
2022-12-26T06:08:44.040Z,16.35
2022-12-26T06:11:48.953Z,16.10
2022-12-26T06:14:51.283Z,16.40
2022-12-26T06:17:56.841Z,18.19
2022-12-26T06:20:58.911Z,19.39
2022-12-26T06:24:00.963Z,20.45
2022-12-26T06:27:03.378Z,20.61
2022-12-26T06:30:06.221Z,20.65
2022-12-26T06:33:08.223Z,20.74
2022-12-26T06:36:15.035Z,21.39
2022-12-26T06:39:17.276Z,21.98
2022-12-26T06:42:19.350Z,21.93
2022-12-26T06:45:22.221Z,22.60
2022-12-26T06:48:24.794Z,23.30
2022-12-26T06:51:29.318Z,23.47
2022-12-26T06:54:31.907Z,23.66
2022-12-26T06:57:34.033Z,23.72
2022-12-26T07:00:36.052Z,22.42
2022-12-26T07:03:41.996Z,20.67
2022-12-26T07:06:48.778Z,19.87
2022-12-26T07:09:50.927Z,21.07
2022-12-26T07:12:52.995Z,20.61
2022-12-26T07:15:55.268Z,20.07
2022-12-26T07:18:58.474Z,20.87
2022-12-26T07:22:00.587Z,20.22
2022-12-26T07:25:02.626Z,21.33
2022-12-26T07:28:05.306Z,20.31
2022-12-26T07:31:07.442Z,20.70
2022-12-26T07:34:09.760Z,21.19
2022-12-26T07:37:13.720Z,21.86
2022-12-26T07:40:15.810Z,21.66
2022-12-26T07:43:18.032Z,22.15
2022-12-26T07:46:20.897Z,21.36
2022-12-26T07:49:23.434Z,21.70
2022-12-26T07:52:25.579Z,21.35
2022-12-26T07:55:27.731Z,22.19
2022-12-26T07:58:29.980Z,21.10
2022-12-26T08:01:32.300Z,19.95
2022-12-26T08:04:35.104Z,20.20
2022-12-26T08:07:37.104Z,20.64
2022-12-26T08:10:39.308Z,20.06
2022-12-26T08:13:41.427Z,19.77
2022-12-26T08:20:09.246Z,22.12
2022-12-26T08:23:12.418Z,23.06
2022-12-26T08:26:21.071Z,22.54
2022-12-26T08:29:23.220Z,22.94
2022-12-26T08:32:25.225Z,23.40
2022-12-26T08:35:27.387Z,23.56
2022-12-26T08:38:31.815Z,23.03
2022-12-26T08:41:35.726Z,23.47
2022-12-26T08:44:38.450Z,23.44
2022-12-26T08:47:40.729Z,22.29
2022-12-26T08:50:43.322Z,22.76
2022-12-26T08:53:46.547Z,23.30
2022-12-26T08:56:48.719Z,23.96
2022-12-26T08:59:52.085Z,24.20
2022-12-26T09:02:54.641Z,24.54
2022-12-26T09:06:05.637Z,24.97
2022-12-26T09:09:11.470Z,25.16
2022-12-26T09:12:13.486Z,25.07
2022-12-26T09:15:16.859Z,25.27
2022-12-26T09:18:22.719Z,23.21
2022-12-26T09:21:24.995Z,21.11
2022-12-26T09:24:27.142Z,20.09
2022-12-26T09:27:29.748Z,20.53
2022-12-26T09:30:31.882Z,20.63
2022-12-26T09:33:37.998Z,20.42
2022-12-26T09:36:40.149Z,20.06
2022-12-26T09:39:42.168Z,19.90
2022-12-26T09:43:00.809Z,19.72
2022-12-26T09:46:17.094Z,20.15
2022-12-26T09:49:41.111Z,19.83
2022-12-26T09:52:48.398Z,19.90
2022-12-26T09:56:03.857Z,19.50
2022-12-26T09:59:17.173Z,19.62
2022-12-26T10:02:22.184Z,19.70
2022-12-26T10:05:34.129Z,19.78
2022-12-26T10:08:53.952Z,19.48
2022-12-26T10:12:06.113Z,19.94
2022-12-26T10:15:43.860Z,20.06
2022-12-26T10:18:59.477Z,19.64
2022-12-26T10:22:28.541Z,19.76
2022-12-26T10:25:56.834Z,19.87
2022-12-26T10:29:12.181Z,19.64
2022-12-26T10:32:34.533Z,19.59
2022-12-26T10:35:42.088Z,19.90
2022-12-26T10:38:47.974Z,19.64
2022-12-26T10:42:12.018Z,19.93
2022-12-26T10:45:29.545Z,19.90
2022-12-26T10:48:31.587Z,19.66
2022-12-26T10:51:34.081Z,19.71
2022-12-26T10:54:36.280Z,19.96
2022-12-26T10:57:41.574Z,19.92
2022-12-26T11:00:44.083Z,19.76
2022-12-26T11:03:57.407Z,19.97
2022-12-26T11:07:10.071Z,19.93
2022-12-26T11:10:25.738Z,19.66
2022-12-26T11:13:27.977Z,19.81
2022-12-26T11:16:33.980Z,19.81
2022-12-26T11:19:44.570Z,19.56
2022-12-26T11:22:47.236Z,19.74
2022-12-26T11:25:53.044Z,19.96
2022-12-26T11:29:16.987Z,19.69
2022-12-26T11:32:20.603Z,19.81
2022-12-26T11:35:26.706Z,20.09
2022-12-26T11:38:43.984Z,20.06
2022-12-26T11:41:49.306Z,20.11
2022-12-26T11:44:55.841Z,19.90
2022-12-26T11:48:02.475Z,19.97
2022-12-26T11:51:06.110Z,19.84
2022-12-26T11:54:37.499Z,19.75
2022-12-26T11:57:39.590Z,19.36
2022-12-26T12:01:22.022Z,19.29
2022-12-26T12:04:24.644Z,19.37
2022-12-26T12:07:36.665Z,19.56
2022-12-26T12:10:49.268Z,19.41
2022-12-26T12:14:01.601Z,19.34
2022-12-26T12:17:12.388Z,19.18
2022-12-26T12:20:30.192Z,19.10
2022-12-26T12:23:37.119Z,19.01
2022-12-26T12:27:05.491Z,18.97
2022-12-26T12:30:55.263Z,18.82
2022-12-26T12:34:03.979Z,18.80
2022-12-26T12:37:42.929Z,18.76
2022-12-26T12:40:56.837Z,18.65
2022-12-26T12:44:07.798Z,18.60
2022-12-26T12:47:55.341Z,18.58
2022-12-26T12:51:28.418Z,18.59
2022-12-26T12:54:48.609Z,18.59
2022-12-26T12:57:56.433Z,18.63
2022-12-26T13:01:04.322Z,18.54
2022-12-26T13:04:20.166Z,18.50
2022-12-26T13:07:28.011Z,18.46
2022-12-26T13:10:33.446Z,18.57
2022-12-26T13:13:38.348Z,18.46
2022-12-26T13:16:49.147Z,18.39
2022-12-26T13:20:17.308Z,18.33
2022-12-26T13:23:59.420Z,18.23
2022-12-26T13:27:11.660Z,18.65
2022-12-26T13:30:16.571Z,18.98
2022-12-26T13:33:19.289Z,19.08
2022-12-26T13:36:40.223Z,19.09
2022-12-26T13:39:42.654Z,19.14
2022-12-26T13:43:08.887Z,19.09
2022-12-26T13:46:32.895Z,19.12
2022-12-26T13:49:40.265Z,19.12
2022-12-26T13:52:42.809Z,19.23
2022-12-26T13:55:45.500Z,19.11
2022-12-26T13:58:55.077Z,19.15
2022-12-26T14:02:58.217Z,19.08
2022-12-26T14:05:58.454Z,19.09
2022-12-26T14:09:20.930Z,19.02
2022-12-26T14:12:53.725Z,18.99
2022-12-26T14:16:21.630Z,18.89
2022-12-26T14:19:35.647Z,18.95
2022-12-26T14:22:49.741Z,18.82
2022-12-26T14:26:03.744Z,18.76
2022-12-26T14:29:24.305Z,18.76
2022-12-26T14:32:57.877Z,18.72
2022-12-26T14:36:22.083Z,18.67
2022-12-26T14:39:29.817Z,18.53
2022-12-26T14:42:51.769Z,18.45
2022-12-26T14:46:03.760Z,18.31
2022-12-26T14:49:39.971Z,18.19
2022-12-26T14:52:43.497Z,18.23
2022-12-26T14:56:04.013Z,18.11
2022-12-26T14:59:29.231Z,18.15
2022-12-26T15:02:34.407Z,18.15
2022-12-26T15:05:44.763Z,18.09
2022-12-26T15:09:08.710Z,18.13
2022-12-26T15:12:13.355Z,18.21
2022-12-26T15:15:33.044Z,18.08
2022-12-26T15:19:12.384Z,18.22
2022-12-26T15:22:42.515Z,18.09
2022-12-26T15:26:09.739Z,18.11
2022-12-26T15:29:26.754Z,18.15
2022-12-26T15:33:00.837Z,18.16
2022-12-26T15:36:14.634Z,18.07
2022-12-26T15:40:02.883Z,18.03
2022-12-26T15:43:16.845Z,17.94
2022-12-26T15:46:21.710Z,18.00
2022-12-26T15:49:34.800Z,17.71
2022-12-26T15:52:54.303Z,18.12
2022-12-26T15:56:15.802Z,18.56
2022-12-26T15:59:29.992Z,18.73
2022-12-26T16:02:37.370Z,18.82
2022-12-26T16:05:59.621Z,18.98
2022-12-26T16:09:20.136Z,19.08
2022-12-26T16:12:31.238Z,19.19
2022-12-26T16:15:34.137Z,19.10
2022-12-26T16:18:38.473Z,19.27
2022-12-26T16:21:59.248Z,19.65
2022-12-26T16:25:02.331Z,19.85
2022-12-26T16:28:05.289Z,19.55
2022-12-26T16:31:09.146Z,19.30
2022-12-26T16:34:17.153Z,19.13
2022-12-26T16:37:24.340Z,19.06
2022-12-26T16:40:42.316Z,18.94
2022-12-26T16:43:44.407Z,18.88
2022-12-26T16:46:46.642Z,18.82
2022-12-26T16:49:49.321Z,18.75
2022-12-26T16:53:06.000Z,18.53
2022-12-26T16:56:33.593Z,18.53
2022-12-26T16:59:49.991Z,18.36
2022-12-26T17:02:56.362Z,18.27
2022-12-26T17:05:58.844Z,18.10
2022-12-26T17:09:12.837Z,18.11
2022-12-26T17:12:37.248Z,18.05
2022-12-26T17:15:53.994Z,17.94
2022-12-26T17:19:20.508Z,17.92
2022-12-26T17:22:32.808Z,17.82
2022-12-26T17:25:35.135Z,17.68
2022-12-26T17:28:39.841Z,17.78
2022-12-26T17:31:44.295Z,18.11
2022-12-26T17:34:46.602Z,18.28
2022-12-26T17:37:52.200Z,18.05
2022-12-26T17:41:02.566Z,17.91
2022-12-26T17:44:43.815Z,17.77
2022-12-26T17:47:46.162Z,17.71
2022-12-26T17:50:50.222Z,17.74
2022-12-26T17:53:54.978Z,17.64
2022-12-26T17:56:57.101Z,17.58
2022-12-26T17:59:59.225Z,17.57
2022-12-26T18:03:01.320Z,17.46
2022-12-26T18:06:03.844Z,17.36
2022-12-26T18:09:05.866Z,17.36
2022-12-26T18:12:09.563Z,17.29
2022-12-26T18:15:11.618Z,17.34
2022-12-26T18:18:41.117Z,17.23
2022-12-26T18:21:46.939Z,17.17
2022-12-26T18:24:49.380Z,17.24
2022-12-26T18:27:51.777Z,17.12
2022-12-26T18:30:53.724Z,17.01
2022-12-26T18:33:56.084Z,16.94
2022-12-26T18:36:58.097Z,16.92
2022-12-26T18:40:00.252Z,16.93
2022-12-26T18:43:04.398Z,16.96
2022-12-26T18:46:06.502Z,17.36
2022-12-26T18:49:09.807Z,17.39
2022-12-26T18:52:17.546Z,17.73
2022-12-26T18:55:21.014Z,17.77
2022-12-26T18:58:23.040Z,17.99
2022-12-26T19:01:26.048Z,18.82
2022-12-26T19:04:28.408Z,18.80
2022-12-26T19:07:30.555Z,18.85
2022-12-26T19:10:35.058Z,18.86
2022-12-26T19:13:37.098Z,19.88
2022-12-26T19:16:39.238Z,19.51
2022-12-26T19:19:41.954Z,19.06
2022-12-26T19:22:44.710Z,18.57
2022-12-26T19:25:46.755Z,18.50
2022-12-26T19:28:52.507Z,18.27
2022-12-26T19:31:56.522Z,18.21
2022-12-26T19:34:59.095Z,18.02
2022-12-26T19:38:01.295Z,18.03
2022-12-26T19:41:04.465Z,17.86
2022-12-26T19:44:06.572Z,17.89
2022-12-26T19:47:12.453Z,18.22
2022-12-26T19:50:14.974Z,18.20
2022-12-26T19:53:17.038Z,18.18
2022-12-26T19:56:24.808Z,18.13
2022-12-26T19:59:29.121Z,18.34
2022-12-26T20:02:31.220Z,18.22
2022-12-26T20:05:37.303Z,18.30
2022-12-26T20:08:40.324Z,18.21
2022-12-26T20:11:46.036Z,18.21
2022-12-26T20:14:48.617Z,18.13
2022-12-26T20:17:50.887Z,18.18
2022-12-26T20:20:53.834Z,18.22
2022-12-26T20:23:58.743Z,18.14
2022-12-26T20:27:01.729Z,18.06
2022-12-26T20:30:05.330Z,18.08
2022-12-26T20:33:07.675Z,17.99
2022-12-26T20:36:12.181Z,17.98
2022-12-26T20:39:17.454Z,17.91
2022-12-26T20:42:20.747Z,17.74
2022-12-26T20:45:22.879Z,17.64
2022-12-26T20:48:25.515Z,17.58
2022-12-26T20:51:37.360Z,17.48
2022-12-26T20:54:40.333Z,17.39
2022-12-26T20:57:42.310Z,17.40
2022-12-26T21:00:45.303Z,17.44
2022-12-26T21:03:48.503Z,17.32
2022-12-26T21:06:52.261Z,17.53
2022-12-26T21:09:54.337Z,17.39
2022-12-26T21:12:58.417Z,17.38
2022-12-26T21:16:10.409Z,17.18
2022-12-26T21:19:16.124Z,17.27
2022-12-26T21:22:18.216Z,17.22
2022-12-26T21:25:22.385Z,17.22
2022-12-26T21:28:24.500Z,17.13
2022-12-26T21:31:27.528Z,17.09
2022-12-26T21:34:31.767Z,17.19
2022-12-26T21:37:48.550Z,17.05
2022-12-26T21:40:51.111Z,16.99
2022-12-26T21:43:56.009Z,16.90
2022-12-26T21:46:58.228Z,17.04
2022-12-26T21:50:00.418Z,16.92
2022-12-26T21:53:03.092Z,17.04
2022-12-26T21:56:07.391Z,16.98
2022-12-26T21:59:28.352Z,17.23
2022-12-26T22:02:51.428Z,17.21
2022-12-26T22:05:53.707Z,17.01
2022-12-26T22:08:55.753Z,17.10
2022-12-26T22:12:27.212Z,16.97
2022-12-26T22:15:48.218Z,16.90
2022-12-26T22:18:50.268Z,16.89
2022-12-26T22:21:55.220Z,16.83
2022-12-26T22:24:57.283Z,16.68
2022-12-26T22:28:00.137Z,16.68
2022-12-26T22:31:02.276Z,16.50
2022-12-26T22:34:06.585Z,16.63
2022-12-26T22:37:08.722Z,16.49
2022-12-26T22:40:11.673Z,16.58
2022-12-26T22:43:13.689Z,16.43
2022-12-26T22:46:15.923Z,16.44
2022-12-26T22:49:18.066Z,16.47
2022-12-26T22:52:20.089Z,16.44
2022-12-26T22:55:22.240Z,16.59
2022-12-26T22:58:24.389Z,16.56
2022-12-26T23:01:30.721Z,16.47
2022-12-26T23:04:35.019Z,16.40
2022-12-26T23:07:39.460Z,16.41
2022-12-26T23:10:48.201Z,16.27
2022-12-26T23:13:50.500Z,16.23
2022-12-26T23:16:56.411Z,16.35
2022-12-26T23:20:17.244Z,16.91
2022-12-26T23:23:19.968Z,17.06
2022-12-26T23:26:23.223Z,17.08
2022-12-26T23:29:45.979Z,17.01
2022-12-26T23:32:51.459Z,16.82
2022-12-26T23:35:54.076Z,16.66
2022-12-26T23:38:56.916Z,16.77
2022-12-26T23:41:59.072Z,17.05
2022-12-26T23:45:01.350Z,17.10
2022-12-26T23:48:06.657Z,17.33
2022-12-26T23:51:09.427Z,17.41
2022-12-26T23:54:11.870Z,17.45
2022-12-26T23:57:14.947Z,17.33
